sensor_id;sensor_type;location;lat;lon;timestamp;P1;durP1;ratioP1;P2;durP2;ratioP2
2211;SDS011;48849;48.758;9.158;2023-05-08T00:01:43;14.45;;;13.07;;
2211;SDS011;48849;48.758;9.158;2023-05-08T00:04:10;16.45;;;14.85;;
2211;SDS011;48849;48.758;9.158;2023-05-08T00:06:38;16.30;;;14.90;;
2211;SDS011;48849;48.758;9.158;2023-05-08T00:09:05;15.75;;;14.25;;
2211;SDS011;48849;48.758;9.158;2023-05-08T00:11:31;16.42;;;14.82;;
2211;SDS011;48849;48.758;9.158;2023-05-08T00:13:58;16.17;;;14.77;;
2211;SDS011;48849;48.758;9.158;2023-05-08T00:16:25;17.00;;;15.40;;
2211;SDS011;48849;48.758;9.158;2023-05-08T00:18:52;16.50;;;14.90;;
2211;SDS011;48849;48.758;9.158;2023-05-08T00:21:18;16.55;;;15.02;;
2211;SDS011;48849;48.758;9.158;2023-05-08T00:23:46;16.83;;;14.82;;
2211;SDS011;48849;48.758;9.158;2023-05-08T00:26:13;17.02;;;14.70;;
2211;SDS011;48849;48.758;9.158;2023-05-08T00:28:40;18.27;;;16.48;;
2211;SDS011;48849;48.758;9.158;2023-05-08T00:31:07;17.58;;;16.05;;
2211;SDS011;48849;48.758;9.158;2023-05-08T00:33:33;18.10;;;16.30;;
2211;SDS011;48849;48.758;9.158;2023-05-08T00:36:00;21.10;;;16.58;;
2211;SDS011;48849;48.758;9.158;2023-05-08T00:38:29;18.20;;;16.50;;
2211;SDS011;48849;48.758;9.158;2023-05-08T00:40:57;16.80;;;15.13;;
2211;SDS011;48849;48.758;9.158;2023-05-08T00:43:24;18.23;;;16.50;;
2211;SDS011;48849;48.758;9.158;2023-05-08T00:45:52;18.17;;;16.27;;
2211;SDS011;48849;48.758;9.158;2023-05-08T00:48:20;20.25;;;18.25;;
2211;SDS011;48849;48.758;9.158;2023-05-08T00:50:48;19.45;;;17.65;;
2211;SDS011;48849;48.758;9.158;2023-05-08T00:53:15;19.30;;;17.38;;
2211;SDS011;48849;48.758;9.158;2023-05-08T00:55:42;20.42;;;18.33;;
2211;SDS011;48849;48.758;9.158;2023-05-08T00:58:11;18.90;;;17.00;;
2211;SDS011;48849;48.758;9.158;2023-05-08T01:00:39;20.27;;;18.25;;
2211;SDS011;48849;48.758;9.158;2023-05-08T01:03:07;18.67;;;16.92;;
2211;SDS011;48849;48.758;9.158;2023-05-08T01:05:34;19.63;;;17.67;;
2211;SDS011;48849;48.758;9.158;2023-05-08T01:08:01;19.02;;;17.17;;
2211;SDS011;48849;48.758;9.158;2023-05-08T01:10:31;19.30;;;17.35;;
2211;SDS011;48849;48.758;9.158;2023-05-08T01:13:08;19.13;;;17.17;;
2211;SDS011;48849;48.758;9.158;2023-05-08T01:15:42;16.80;;;15.10;;
2211;SDS011;48849;48.758;9.158;2023-05-08T01:18:16;18.70;;;16.80;;
2211;SDS011;48849;48.758;9.158;2023-05-08T01:20:48;20.15;;;18.00;;
2211;SDS011;48849;48.758;9.158;2023-05-08T01:26:37;19.70;;;17.70;;
2211;SDS011;48849;48.758;9.158;2023-05-08T01:29:28;19.33;;;17.45;;
2211;SDS011;48849;48.758;9.158;2023-05-08T01:32:17;19.55;;;16.75;;
2211;SDS011;48849;48.758;9.158;2023-05-08T01:34:48;18.45;;;16.65;;
2211;SDS011;48849;48.758;9.158;2023-05-08T01:37:26;18.58;;;16.83;;
2211;SDS011;48849;48.758;9.158;2023-05-08T01:39:59;18.08;;;16.33;;
2211;SDS011;48849;48.758;9.158;2023-05-08T01:42:38;19.58;;;17.50;;
2211;SDS011;48849;48.758;9.158;2023-05-08T01:45:12;17.20;;;15.70;;
2211;SDS011;48849;48.758;9.158;2023-05-08T01:47:45;18.52;;;16.65;;
2211;SDS011;48849;48.758;9.158;2023-05-08T01:50:17;16.38;;;14.88;;
2211;SDS011;48849;48.758;9.158;2023-05-08T01:52:47;18.73;;;16.83;;
2211;SDS011;48849;48.758;9.158;2023-05-08T01:55:19;17.85;;;16.25;;
2211;SDS011;48849;48.758;9.158;2023-05-08T01:57:59;18.75;;;16.88;;
2211;SDS011;48849;48.758;9.158;2023-05-08T02:00:29;17.08;;;15.48;;
2211;SDS011;48849;48.758;9.158;2023-05-08T02:02:57;17.70;;;15.93;;
2211;SDS011;48849;48.758;9.158;2023-05-08T02:05:25;17.98;;;16.05;;
2211;SDS011;48849;48.758;9.158;2023-05-08T02:07:53;17.98;;;16.17;;
2211;SDS011;48849;48.758;9.158;2023-05-08T02:10:22;18.52;;;16.83;;
2211;SDS011;48849;48.758;9.158;2023-05-08T02:12:50;17.75;;;16.05;;
2211;SDS011;48849;48.758;9.158;2023-05-08T02:15:18;18.40;;;16.70;;
2211;SDS011;48849;48.758;9.158;2023-05-08T02:17:47;17.55;;;15.95;;
2211;SDS011;48849;48.758;9.158;2023-05-08T02:20:17;18.77;;;16.90;;
2211;SDS011;48849;48.758;9.158;2023-05-08T02:22:46;19.50;;;17.60;;
2211;SDS011;48849;48.758;9.158;2023-05-08T02:25:15;18.90;;;17.20;;
2211;SDS011;48849;48.758;9.158;2023-05-08T02:27:45;17.10;;;15.60;;
2211;SDS011;48849;48.758;9.158;2023-05-08T02:30:14;18.98;;;17.17;;
2211;SDS011;48849;48.758;9.158;2023-05-08T02:32:43;21.67;;;17.55;;
2211;SDS011;48849;48.758;9.158;2023-05-08T02:35:11;19.95;;;17.90;;
2211;SDS011;48849;48.758;9.158;2023-05-08T02:37:43;18.70;;;16.80;;
2211;SDS011;48849;48.758;9.158;2023-05-08T02:40:12;19.23;;;17.27;;
2211;SDS011;48849;48.758;9.158;2023-05-08T02:42:39;19.08;;;17.30;;
2211;SDS011;48849;48.758;9.158;2023-05-08T02:45:07;20.08;;;18.08;;
2211;SDS011;48849;48.758;9.158;2023-05-08T02:47:38;20.67;;;18.48;;
2211;SDS011;48849;48.758;9.158;2023-05-08T02:50:11;19.30;;;17.45;;
2211;SDS011;48849;48.758;9.158;2023-05-08T02:52:43;18.50;;;16.50;;
2211;SDS011;48849;48.758;9.158;2023-05-08T02:55:14;20.13;;;18.10;;
2211;SDS011;48849;48.758;9.158;2023-05-08T02:57:56;18.60;;;16.85;;
2211;SDS011;48849;48.758;9.158;2023-05-08T03:00:31;19.63;;;17.55;;
2211;SDS011;48849;48.758;9.158;2023-05-08T03:03:04;19.60;;;16.65;;
2211;SDS011;48849;48.758;9.158;2023-05-08T03:05:36;19.75;;;17.90;;
2211;SDS011;48849;48.758;9.158;2023-05-08T03:08:09;19.40;;;17.42;;
2211;SDS011;48849;48.758;9.158;2023-05-08T03:10:40;19.50;;;17.65;;
2211;SDS011;48849;48.758;9.158;2023-05-08T03:13:10;20.05;;;17.90;;
2211;SDS011;48849;48.758;9.158;2023-05-08T03:15:40;19.08;;;17.27;;
2211;SDS011;48849;48.758;9.158;2023-05-08T03:18:10;17.70;;;16.00;;
2211;SDS011;48849;48.758;9.158;2023-05-08T03:20:42;18.38;;;16.58;;
2211;SDS011;48849;48.758;9.158;2023-05-08T03:23:12;17.50;;;15.82;;
2211;SDS011;48849;48.758;9.158;2023-05-08T03:25:42;17.77;;;16.08;;
2211;SDS011;48849;48.758;9.158;2023-05-08T03:28:09;18.10;;;16.23;;
2211;SDS011;48849;48.758;9.158;2023-05-08T03:30:39;17.30;;;15.60;;
2211;SDS011;48849;48.758;9.158;2023-05-08T03:33:06;17.45;;;15.75;;
2211;SDS011;48849;48.758;9.158;2023-05-08T03:35:34;17.73;;;15.98;;
2211;SDS011;48849;48.758;9.158;2023-05-08T03:38:02;17.92;;;16.00;;
2211;SDS011;48849;48.758;9.158;2023-05-08T03:40:30;17.00;;;15.50;;
2211;SDS011;48849;48.758;9.158;2023-05-08T03:43:02;17.08;;;15.25;;
2211;SDS011;48849;48.758;9.158;2023-05-08T03:45:30;19.60;;;17.63;;
2211;SDS011;48849;48.758;9.158;2023-05-08T03:48:00;17.65;;;15.90;;
2211;SDS011;48849;48.758;9.158;2023-05-08T03:50:28;19.13;;;17.30;;
2211;SDS011;48849;48.758;9.158;2023-05-08T03:52:56;19.02;;;17.13;;
2211;SDS011;48849;48.758;9.158;2023-05-08T03:55:23;16.85;;;15.35;;
2211;SDS011;48849;48.758;9.158;2023-05-08T03:57:54;17.92;;;16.10;;
2211;SDS011;48849;48.758;9.158;2023-05-08T04:00:28;18.65;;;16.85;;
2211;SDS011;48849;48.758;9.158;2023-05-08T04:03:10;18.17;;;16.58;;
2211;SDS011;48849;48.758;9.158;2023-05-08T04:05:46;18.95;;;17.15;;
2211;SDS011;48849;48.758;9.158;2023-05-08T04:08:18;21.48;;;17.08;;
2211;SDS011;48849;48.758;9.158;2023-05-08T04:10:49;16.85;;;15.18;;
2211;SDS011;48849;48.758;9.158;2023-05-08T04:13:26;16.70;;;15.10;;
2211;SDS011;48849;48.758;9.158;2023-05-08T04:15:59;17.27;;;15.68;;
2211;SDS011;48849;48.758;9.158;2023-05-08T04:18:29;16.60;;;15.10;;
2211;SDS011;48849;48.758;9.158;2023-05-08T04:20:59;16.33;;;14.82;;
2211;SDS011;48849;48.758;9.158;2023-05-08T04:23:28;17.20;;;15.40;;
2211;SDS011;48849;48.758;9.158;2023-05-08T04:25:55;17.50;;;15.90;;
2211;SDS011;48849;48.758;9.158;2023-05-08T04:28:26;17.38;;;15.82;;
2211;SDS011;48849;48.758;9.158;2023-05-08T04:30:53;18.45;;;16.55;;
2211;SDS011;48849;48.758;9.158;2023-05-08T04:33:21;17.80;;;15.95;;
2211;SDS011;48849;48.758;9.158;2023-05-08T04:35:48;17.50;;;15.90;;
2211;SDS011;48849;48.758;9.158;2023-05-08T04:38:16;17.33;;;15.73;;
2211;SDS011;48849;48.758;9.158;2023-05-08T04:40:42;16.65;;;15.15;;
2211;SDS011;48849;48.758;9.158;2023-05-08T04:43:09;16.73;;;15.23;;
2211;SDS011;48849;48.758;9.158;2023-05-08T04:45:37;16.50;;;14.90;;
2211;SDS011;48849;48.758;9.158;2023-05-08T04:48:04;15.95;;;14.50;;
2211;SDS011;48849;48.758;9.158;2023-05-08T04:50:31;16.33;;;14.80;;
2211;SDS011;48849;48.758;9.158;2023-05-08T04:52:58;17.25;;;15.65;;
2211;SDS011;48849;48.758;9.158;2023-05-08T04:55:24;17.10;;;15.50;;
2211;SDS011;48849;48.758;9.158;2023-05-08T04:57:51;18.75;;;17.15;;
2211;SDS011;48849;48.758;9.158;2023-05-08T05:00:18;18.25;;;16.55;;
2211;SDS011;48849;48.758;9.158;2023-05-08T05:02:46;18.05;;;16.35;;
2211;SDS011;48849;48.758;9.158;2023-05-08T05:05:13;18.38;;;16.77;;
2211;SDS011;48849;48.758;9.158;2023-05-08T05:07:40;17.48;;;15.48;;
2211;SDS011;48849;48.758;9.158;2023-05-08T05:10:07;17.88;;;16.27;;
2211;SDS011;48849;48.758;9.158;2023-05-08T05:12:34;18.67;;;16.98;;
2211;SDS011;48849;48.758;9.158;2023-05-08T05:15:01;19.13;;;17.08;;
2211;SDS011;48849;48.758;9.158;2023-05-08T05:17:29;18.38;;;16.50;;
2211;SDS011;48849;48.758;9.158;2023-05-08T05:19:57;18.60;;;16.92;;
2211;SDS011;48849;48.758;9.158;2023-05-08T05:22:24;17.90;;;16.30;;
2211;SDS011;48849;48.758;9.158;2023-05-08T05:24:52;21.20;;;17.65;;
2211;SDS011;48849;48.758;9.158;2023-05-08T05:27:19;20.63;;;18.67;;
2211;SDS011;48849;48.758;9.158;2023-05-08T05:29:46;19.25;;;17.45;;
2211;SDS011;48849;48.758;9.158;2023-05-08T05:32:12;19.85;;;17.95;;
2211;SDS011;48849;48.758;9.158;2023-05-08T05:34:39;20.23;;;18.35;;
2211;SDS011;48849;48.758;9.158;2023-05-08T05:37:07;20.52;;;18.63;;
2211;SDS011;48849;48.758;9.158;2023-05-08T05:39:34;19.65;;;17.83;;
2211;SDS011;48849;48.758;9.158;2023-05-08T05:42:01;19.48;;;17.67;;
2211;SDS011;48849;48.758;9.158;2023-05-08T05:44:28;20.02;;;18.00;;
2211;SDS011;48849;48.758;9.158;2023-05-08T05:46:55;20.55;;;18.42;;
2211;SDS011;48849;48.758;9.158;2023-05-08T05:49:22;18.90;;;17.00;;
2211;SDS011;48849;48.758;9.158;2023-05-08T05:51:48;18.42;;;16.70;;
2211;SDS011;48849;48.758;9.158;2023-05-08T05:54:16;20.23;;;18.33;;
2211;SDS011;48849;48.758;9.158;2023-05-08T05:56:43;18.45;;;16.65;;
2211;SDS011;48849;48.758;9.158;2023-05-08T05:59:10;19.52;;;17.75;;
2211;SDS011;48849;48.758;9.158;2023-05-08T06:01:37;20.08;;;18.00;;
2211;SDS011;48849;48.758;9.158;2023-05-08T06:04:04;21.00;;;18.80;;
2211;SDS011;48849;48.758;9.158;2023-05-08T06:06:32;20.17;;;18.00;;
2211;SDS011;48849;48.758;9.158;2023-05-08T06:09:07;20.98;;;18.90;;
2211;SDS011;48849;48.758;9.158;2023-05-08T06:11:40;20.13;;;17.75;;
2211;SDS011;48849;48.758;9.158;2023-05-08T06:14:11;18.58;;;15.80;;
2211;SDS011;48849;48.758;9.158;2023-05-08T06:16:48;17.52;;;15.93;;
2211;SDS011;48849;48.758;9.158;2023-05-08T06:19:24;16.92;;;15.32;;
2211;SDS011;48849;48.758;9.158;2023-05-08T06:21:54;16.38;;;14.98;;
2211;SDS011;48849;48.758;9.158;2023-05-08T06:24:31;16.10;;;14.52;;
2211;SDS011;48849;48.758;9.158;2023-05-08T06:27:21;16.52;;;14.98;;
2211;SDS011;48849;48.758;9.158;2023-05-08T06:30:13;15.90;;;14.50;;
2211;SDS011;48849;48.758;9.158;2023-05-08T06:32:44;16.58;;;14.93;;
2211;SDS011;48849;48.758;9.158;2023-05-08T06:35:21;15.63;;;14.23;;
2211;SDS011;48849;48.758;9.158;2023-05-08T06:37:58;16.58;;;14.98;;
2211;SDS011;48849;48.758;9.158;2023-05-08T06:40:34;16.70;;;14.98;;
2211;SDS011;48849;48.758;9.158;2023-05-08T06:43:16;17.08;;;15.48;;
2211;SDS011;48849;48.758;9.158;2023-05-08T06:45:54;17.50;;;15.68;;
2211;SDS011;48849;48.758;9.158;2023-05-08T06:48:45;16.42;;;14.88;;
2211;SDS011;48849;48.758;9.158;2023-05-08T06:51:17;16.67;;;15.05;;
2211;SDS011;48849;48.758;9.158;2023-05-08T06:53:51;15.93;;;14.43;;
2211;SDS011;48849;48.758;9.158;2023-05-08T06:56:52;15.63;;;14.23;;
2211;SDS011;48849;48.758;9.158;2023-05-08T06:59:25;15.85;;;14.27;;
2211;SDS011;48849;48.758;9.158;2023-05-08T07:02:03;16.85;;;15.25;;
2211;SDS011;48849;48.758;9.158;2023-05-08T07:04:33;17.40;;;15.73;;
2211;SDS011;48849;48.758;9.158;2023-05-08T07:10:27;15.77;;;14.30;;
2211;SDS011;48849;48.758;9.158;2023-05-08T07:19:52;16.05;;;14.38;;
2211;SDS011;48849;48.758;9.158;2023-05-08T07:22:25;16.40;;;14.90;;
2211;SDS011;48849;48.758;9.158;2023-05-08T07:25:16;15.75;;;14.25;;
2211;SDS011;48849;48.758;9.158;2023-05-08T07:28:17;15.38;;;14.02;;
2211;SDS011;48849;48.758;9.158;2023-05-08T07:31:34;16.85;;;15.27;;
2211;SDS011;48849;48.758;9.158;2023-05-08T07:34:31;14.65;;;13.35;;
2211;SDS011;48849;48.758;9.158;2023-05-08T07:37:50;14.65;;;13.35;;
2211;SDS011;48849;48.758;9.158;2023-05-08T07:40:49;15.50;;;14.20;;
2211;SDS011;48849;48.758;9.158;2023-05-08T07:43:23;14.88;;;13.57;;
2211;SDS011;48849;48.758;9.158;2023-05-08T07:48:36;16.85;;;15.20;;
2211;SDS011;48849;48.758;9.158;2023-05-08T07:51:05;14.88;;;13.48;;
2211;SDS011;48849;48.758;9.158;2023-05-08T07:53:32;17.17;;;14.32;;
2211;SDS011;48849;48.758;9.158;2023-05-08T08:02:50;15.52;;;14.18;;
2211;SDS011;48849;48.758;9.158;2023-05-08T08:12:29;15.43;;;14.02;;
2211;SDS011;48849;48.758;9.158;2023-05-08T08:15:04;14.85;;;13.52;;
2211;SDS011;48849;48.758;9.158;2023-05-08T08:17:36;13.57;;;12.18;;
2211;SDS011;48849;48.758;9.158;2023-05-08T08:23:06;10.45;;;9.55;;
2211;SDS011;48849;48.758;9.158;2023-05-08T08:25:39;10.30;;;9.40;;
2211;SDS011;48849;48.758;9.158;2023-05-08T08:28:16;9.98;;;9.13;;
2211;SDS011;48849;48.758;9.158;2023-05-08T08:30:42;10.40;;;9.40;;
2211;SDS011;48849;48.758;9.158;2023-05-08T08:33:09;10.20;;;9.20;;
2211;SDS011;48849;48.758;9.158;2023-05-08T08:35:36;10.23;;;9.23;;
2211;SDS011;48849;48.758;9.158;2023-05-08T08:38:08;9.82;;;8.85;;
2211;SDS011;48849;48.758;9.158;2023-05-08T08:40:38;9.90;;;9.00;;
2211;SDS011;48849;48.758;9.158;2023-05-08T08:43:14;10.30;;;9.40;;
2211;SDS011;48849;48.758;9.158;2023-05-08T08:45:45;11.35;;;10.35;;
2211;SDS011;48849;48.758;9.158;2023-05-08T08:48:12;10.55;;;9.40;;
2211;SDS011;48849;48.758;9.158;2023-05-08T08:50:40;12.73;;;9.80;;
2211;SDS011;48849;48.758;9.158;2023-05-08T08:53:09;10.40;;;9.40;;
2211;SDS011;48849;48.758;9.158;2023-05-08T08:55:43;10.95;;;10.05;;
2211;SDS011;48849;48.758;9.158;2023-05-08T08:58:30;9.70;;;8.90;;
2211;SDS011;48849;48.758;9.158;2023-05-08T09:01:24;9.30;;;8.40;;
2211;SDS011;48849;48.758;9.158;2023-05-08T09:04:12;10.75;;;9.75;;
2211;SDS011;48849;48.758;9.158;2023-05-08T09:06:56;10.45;;;9.43;;
2211;SDS011;48849;48.758;9.158;2023-05-08T09:09:53;10.38;;;9.38;;
2211;SDS011;48849;48.758;9.158;2023-05-08T09:12:40;10.75;;;9.65;;
2211;SDS011;48849;48.758;9.158;2023-05-08T09:15:28;9.10;;;8.30;;
2211;SDS011;48849;48.758;9.158;2023-05-08T09:17:56;10.05;;;9.15;;
2211;SDS011;48849;48.758;9.158;2023-05-08T09:20:52;11.07;;;10.07;;
2211;SDS011;48849;48.758;9.158;2023-05-08T09:23:35;10.20;;;9.20;;
2211;SDS011;48849;48.758;9.158;2023-05-08T09:26:30;16.63;;;10.20;;
2211;SDS011;48849;48.758;9.158;2023-05-08T09:29:17;11.18;;;9.90;;
2211;SDS011;48849;48.758;9.158;2023-05-08T09:32:08;11.07;;;10.00;;
2211;SDS011;48849;48.758;9.158;2023-05-08T09:34:58;10.77;;;9.88;;
2211;SDS011;48849;48.758;9.158;2023-05-08T09:37:30;11.38;;;10.20;;
2211;SDS011;48849;48.758;9.158;2023-05-08T09:40:17;11.85;;;10.75;;
2211;SDS011;48849;48.758;9.158;2023-05-08T09:42:53;11.88;;;10.68;;
2211;SDS011;48849;48.758;9.158;2023-05-08T09:45:33;11.80;;;10.70;;
2211;SDS011;48849;48.758;9.158;2023-05-08T09:48:09;12.40;;;11.20;;
2211;SDS011;48849;48.758;9.158;2023-05-08T09:51:04;11.55;;;10.45;;
2211;SDS011;48849;48.758;9.158;2023-05-08T09:53:31;12.55;;;11.15;;
2211;SDS011;48849;48.758;9.158;2023-05-08T09:55:58;12.82;;;11.52;;
2211;SDS011;48849;48.758;9.158;2023-05-08T09:58:25;11.55;;;10.45;;
2211;SDS011;48849;48.758;9.158;2023-05-08T10:01:03;12.45;;;11.20;;
2211;SDS011;48849;48.758;9.158;2023-05-08T10:03:46;12.05;;;10.95;;
2211;SDS011;48849;48.758;9.158;2023-05-08T10:06:14;11.63;;;10.45;;
2211;SDS011;48849;48.758;9.158;2023-05-08T10:08:41;12.45;;;10.40;;
2211;SDS011;48849;48.758;9.158;2023-05-08T10:11:13;10.57;;;9.60;;
2211;SDS011;48849;48.758;9.158;2023-05-08T10:13:41;8.55;;;7.85;;
2211;SDS011;48849;48.758;9.158;2023-05-08T10:16:09;7.95;;;7.20;;
2211;SDS011;48849;48.758;9.158;2023-05-08T10:18:39;8.35;;;7.55;;
2211;SDS011;48849;48.758;9.158;2023-05-08T10:21:14;8.60;;;7.80;;
2211;SDS011;48849;48.758;9.158;2023-05-08T10:23:41;9.00;;;8.23;;
2211;SDS011;48849;48.758;9.158;2023-05-08T10:26:11;8.57;;;7.78;;
2211;SDS011;48849;48.758;9.158;2023-05-08T10:28:41;10.23;;;9.33;;
2211;SDS011;48849;48.758;9.158;2023-05-08T10:31:10;8.80;;;8.10;;
2211;SDS011;48849;48.758;9.158;2023-05-08T10:33:40;9.98;;;9.07;;
2211;SDS011;48849;48.758;9.158;2023-05-08T10:36:09;9.30;;;8.48;;
2211;SDS011;48849;48.758;9.158;2023-05-08T11:11:44;8.97;;;8.17;;
2211;SDS011;48849;48.758;9.158;2023-05-08T11:31:01;9.23;;;7.60;;
2211;SDS011;48849;48.758;9.158;2023-05-08T11:34:13;7.90;;;7.20;;
2211;SDS011;48849;48.758;9.158;2023-05-08T11:37:28;8.60;;;7.80;;
2211;SDS011;48849;48.758;9.158;2023-05-08T11:41:05;9.02;;;8.23;;
2211;SDS011;48849;48.758;9.158;2023-05-08T12:08:50;10.60;;;9.70;;
2211;SDS011;48849;48.758;9.158;2023-05-08T12:15:08;10.10;;;9.20;;
2211;SDS011;48849;48.758;9.158;2023-05-08T12:17:59;12.00;;;10.90;;
2211;SDS011;48849;48.758;9.158;2023-05-08T12:20:50;11.70;;;10.70;;
2211;SDS011;48849;48.758;9.158;2023-05-08T12:23:43;12.27;;;11.17;;
2211;SDS011;48849;48.758;9.158;2023-05-08T12:26:19;12.97;;;11.87;;
2211;SDS011;48849;48.758;9.158;2023-05-08T12:28:53;12.77;;;11.57;;
2211;SDS011;48849;48.758;9.158;2023-05-08T12:31:36;13.17;;;12.10;;
2211;SDS011;48849;48.758;9.158;2023-05-08T12:37:41;18.57;;;16.67;;
2211;SDS011;48849;48.758;9.158;2023-05-08T12:40:26;16.10;;;14.60;;
2211;SDS011;48849;48.758;9.158;2023-05-08T12:43:39;12.63;;;11.60;;
2211;SDS011;48849;48.758;9.158;2023-05-08T12:46:24;11.93;;;10.93;;
2211;SDS011;48849;48.758;9.158;2023-05-08T12:49:06;12.30;;;11.10;;
2211;SDS011;48849;48.758;9.158;2023-05-08T12:51:36;9.67;;;8.80;;
2211;SDS011;48849;48.758;9.158;2023-05-08T12:54:30;9.33;;;8.53;;
2211;SDS011;48849;48.758;9.158;2023-05-08T12:57:18;10.10;;;9.20;;
2211;SDS011;48849;48.758;9.158;2023-05-08T12:59:49;10.93;;;10.03;;
2211;SDS011;48849;48.758;9.158;2023-05-08T13:02:45;9.57;;;8.77;;
2211;SDS011;48849;48.758;9.158;2023-05-08T13:05:21;10.60;;;9.60;;
2211;SDS011;48849;48.758;9.158;2023-05-08T13:08:00;10.80;;;8.90;;
2211;SDS011;48849;48.758;9.158;2023-05-08T13:24:40;10.83;;;9.73;;
2211;SDS011;48849;48.758;9.158;2023-05-08T13:31:20;9.80;;;9.00;;
2211;SDS011;48849;48.758;9.158;2023-05-08T13:38:52;13.10;;;12.00;;
2211;SDS011;48849;48.758;9.158;2023-05-08T13:41:25;13.20;;;12.10;;
2211;SDS011;48849;48.758;9.158;2023-05-08T13:43:53;14.07;;;12.67;;
2211;SDS011;48849;48.758;9.158;2023-05-08T13:46:22;14.00;;;12.80;;
2211;SDS011;48849;48.758;9.158;2023-05-08T14:00:36;16.67;;;15.17;;
2211;SDS011;48849;48.758;9.158;2023-05-08T14:08:07;13.97;;;12.77;;
2211;SDS011;48849;48.758;9.158;2023-05-08T14:10:35;16.60;;;14.30;;
2211;SDS011;48849;48.758;9.158;2023-05-08T16:05:15;24.20;;;21.90;;
2211;SDS011;48849;48.758;9.158;2023-05-08T16:07:45;23.60;;;21.40;;
2211;SDS011;48849;48.758;9.158;2023-05-08T16:10:26;24.37;;;22.07;;
2211;SDS011;48849;48.758;9.158;2023-05-08T16:13:01;24.38;;;21.90;;
2211;SDS011;48849;48.758;9.158;2023-05-08T16:15:32;24.85;;;22.40;;
2211;SDS011;48849;48.758;9.158;2023-05-08T16:18:16;23.50;;;20.90;;
2211;SDS011;48849;48.758;9.158;2023-05-08T16:23:34;29.20;;;25.10;;
2211;SDS011;48849;48.758;9.158;2023-05-08T16:26:01;24.73;;;22.33;;
2211;SDS011;48849;48.758;9.158;2023-05-08T16:28:31;24.88;;;22.50;;
2211;SDS011;48849;48.758;9.158;2023-05-08T16:31:00;26.97;;;24.37;;
2211;SDS011;48849;48.758;9.158;2023-05-08T16:33:32;25.23;;;22.87;;
2211;SDS011;48849;48.758;9.158;2023-05-08T16:36:00;24.93;;;22.47;;
2211;SDS011;48849;48.758;9.158;2023-05-08T16:38:29;23.10;;;20.70;;
2211;SDS011;48849;48.758;9.158;2023-05-08T16:40:59;21.40;;;19.40;;
2211;SDS011;48849;48.758;9.158;2023-05-08T16:43:27;22.47;;;20.27;;
2211;SDS011;48849;48.758;9.158;2023-05-08T16:45:54;21.77;;;19.67;;
2211;SDS011;48849;48.758;9.158;2023-05-08T16:48:21;22.07;;;19.73;;
2211;SDS011;48849;48.758;9.158;2023-05-08T16:50:48;27.30;;;23.48;;
2211;SDS011;48849;48.758;9.158;2023-05-08T16:53:25;23.13;;;20.73;;
2211;SDS011;48849;48.758;9.158;2023-05-08T17:01:36;26.05;;;23.48;;
2211;SDS011;48849;48.758;9.158;2023-05-08T17:04:11;23.67;;;21.37;;
2211;SDS011;48849;48.758;9.158;2023-05-08T17:13:42;22.67;;;20.43;;
2211;SDS011;48849;48.758;9.158;2023-05-08T17:50:51;22.13;;;16.70;;
2211;SDS011;48849;48.758;9.158;2023-05-08T17:53:18;17.13;;;15.53;;
2211;SDS011;48849;48.758;9.158;2023-05-08T17:55:45;17.00;;;15.20;;
2211;SDS011;48849;48.758;9.158;2023-05-08T17:58:12;17.17;;;15.45;;
2211;SDS011;48849;48.758;9.158;2023-05-08T18:00:39;16.08;;;14.63;;
2211;SDS011;48849;48.758;9.158;2023-05-08T18:03:06;16.77;;;15.27;;
2211;SDS011;48849;48.758;9.158;2023-05-08T18:05:33;16.92;;;15.27;;
2211;SDS011;48849;48.758;9.158;2023-05-08T18:08:01;15.98;;;14.38;;
2211;SDS011;48849;48.758;9.158;2023-05-08T18:10:27;17.75;;;16.15;;
2211;SDS011;48849;48.758;9.158;2023-05-08T18:12:55;17.27;;;15.57;;
2211;SDS011;48849;48.758;9.158;2023-05-08T18:15:22;18.35;;;15.85;;
2211;SDS011;48849;48.758;9.158;2023-05-08T18:17:48;18.23;;;16.40;;
2211;SDS011;48849;48.758;9.158;2023-05-08T18:20:17;17.90;;;16.23;;
2211;SDS011;48849;48.758;9.158;2023-05-08T18:22:44;17.55;;;15.88;;
2211;SDS011;48849;48.758;9.158;2023-05-08T18:25:13;18.48;;;16.77;;
2211;SDS011;48849;48.758;9.158;2023-05-08T18:27:39;17.17;;;15.40;;
2211;SDS011;48849;48.758;9.158;2023-05-08T18:30:07;17.73;;;15.93;;
2211;SDS011;48849;48.758;9.158;2023-05-08T18:32:34;18.70;;;17.00;;
2211;SDS011;48849;48.758;9.158;2023-05-08T18:35:01;18.45;;;16.65;;
2211;SDS011;48849;48.758;9.158;2023-05-08T18:37:28;18.08;;;16.38;;
2211;SDS011;48849;48.758;9.158;2023-05-08T18:39:55;19.10;;;17.30;;
2211;SDS011;48849;48.758;9.158;2023-05-08T18:42:23;18.98;;;17.02;;
2211;SDS011;48849;48.758;9.158;2023-05-08T18:44:50;17.20;;;15.60;;
2211;SDS011;48849;48.758;9.158;2023-05-08T18:47:17;18.10;;;16.40;;
2211;SDS011;48849;48.758;9.158;2023-05-08T18:49:44;19.70;;;17.80;;
2211;SDS011;48849;48.758;9.158;2023-05-08T18:52:10;18.05;;;16.45;;
2211;SDS011;48849;48.758;9.158;2023-05-08T18:54:38;17.60;;;16.00;;
2211;SDS011;48849;48.758;9.158;2023-05-08T18:57:05;18.70;;;16.92;;
2211;SDS011;48849;48.758;9.158;2023-05-08T18:59:33;19.33;;;17.33;;
2211;SDS011;48849;48.758;9.158;2023-05-08T19:02:00;18.75;;;16.85;;
2211;SDS011;48849;48.758;9.158;2023-05-08T19:04:29;17.67;;;15.95;;
2211;SDS011;48849;48.758;9.158;2023-05-08T19:06:55;17.85;;;16.25;;
2211;SDS011;48849;48.758;9.158;2023-05-08T19:09:22;17.05;;;15.50;;
2211;SDS011;48849;48.758;9.158;2023-05-08T19:11:49;18.10;;;16.20;;
2211;SDS011;48849;48.758;9.158;2023-05-08T19:14:15;16.93;;;15.33;;
2211;SDS011;48849;48.758;9.158;2023-05-08T19:16:44;18.10;;;16.40;;
2211;SDS011;48849;48.758;9.158;2023-05-08T19:19:10;17.40;;;15.80;;
2211;SDS011;48849;48.758;9.158;2023-05-08T19:21:37;18.73;;;16.00;;
2211;SDS011;48849;48.758;9.158;2023-05-08T19:24:04;16.70;;;15.20;;
2211;SDS011;48849;48.758;9.158;2023-05-08T19:26:32;16.65;;;15.00;;
2211;SDS011;48849;48.758;9.158;2023-05-08T19:28:58;17.88;;;15.20;;
2211;SDS011;48849;48.758;9.158;2023-05-08T19:31:25;17.08;;;15.55;;
2211;SDS011;48849;48.758;9.158;2023-05-08T19:33:53;18.65;;;16.80;;
2211;SDS011;48849;48.758;9.158;2023-05-08T19:36:21;18.20;;;16.60;;
2211;SDS011;48849;48.758;9.158;2023-05-08T19:38:48;21.58;;;19.42;;
2211;SDS011;48849;48.758;9.158;2023-05-08T19:41:14;19.35;;;17.40;;
2211;SDS011;48849;48.758;9.158;2023-05-08T19:43:42;17.40;;;15.63;;
2211;SDS011;48849;48.758;9.158;2023-05-08T19:46:09;18.05;;;16.38;;
2211;SDS011;48849;48.758;9.158;2023-05-08T19:48:36;16.77;;;15.27;;
2211;SDS011;48849;48.758;9.158;2023-05-08T19:51:07;17.90;;;15.30;;
2211;SDS011;48849;48.758;9.158;2023-05-08T19:53:35;21.45;;;16.42;;
2211;SDS011;48849;48.758;9.158;2023-05-08T19:56:03;17.60;;;15.90;;
2211;SDS011;48849;48.758;9.158;2023-05-08T19:58:30;16.63;;;14.93;;
2211;SDS011;48849;48.758;9.158;2023-05-08T20:00:57;19.10;;;15.68;;
2211;SDS011;48849;48.758;9.158;2023-05-08T20:03:24;16.73;;;15.10;;
2211;SDS011;48849;48.758;9.158;2023-05-08T20:05:51;17.73;;;15.40;;
2211;SDS011;48849;48.758;9.158;2023-05-08T20:08:20;15.30;;;13.55;;
2211;SDS011;48849;48.758;9.158;2023-05-08T20:10:47;15.52;;;14.13;;
2211;SDS011;48849;48.758;9.158;2023-05-08T20:13:13;17.40;;;15.65;;
2211;SDS011;48849;48.758;9.158;2023-05-08T20:15:41;18.42;;;14.85;;
2211;SDS011;48849;48.758;9.158;2023-05-08T20:18:07;15.70;;;14.20;;
2211;SDS011;48849;48.758;9.158;2023-05-08T20:20:34;15.85;;;13.85;;
2211;SDS011;48849;48.758;9.158;2023-05-08T20:23:01;16.92;;;15.32;;
2211;SDS011;48849;48.758;9.158;2023-05-08T20:25:29;17.40;;;14.88;;
2211;SDS011;48849;48.758;9.158;2023-05-08T20:27:56;17.70;;;15.95;;